This is the latest recevied weather packets stored in our database for station/object W7PJH-3. If no packets are shown the sender has not sent any weather packets the latest 10 day(s).
| Time | Temp. | Humidity | Pressure | Rain* | Wind** | Luminosity | Snow |
|---|---|---|---|---|---|---|---|
| 1777345210 | 23.89° C | 18% | 1009.6 hPa | 0 mm | - | - | - |
| 1777341900 | 25.56° C | 13% | 1008 hPa | 0 mm | - | - | - |
| 1777341609 | 25.56° C | 13% | 1008 hPa | 0 mm | - | - | - |
| 1777338252 | 27.78° C | 12% | 1006.8 hPa | 0 mm | - | - | - |
| 1777338010 | 27.78° C | 12% | 1006.8 hPa | 0 mm | - | - | - |
| 1777334579 | 28.89° C | 12% | 1006.5 hPa | 0 mm | - | - | - |
| 1777334410 | 28.89° C | 12% | 1006.5 hPa | 0 mm | - | - | - |
| 1777331002 | 28.33° C | 15% | 1007 hPa | 0 mm | - | - | - |
| 1777330810 | 28.33° C | 15% | 1007 hPa | 0 mm | - | - | - |
| 1777327426 | 27.78° C | 16% | 1007.7 hPa | 0 mm | - | - | - |
| 1777327210 | 27.78° C | 16% | 1007.7 hPa | 0 mm | - | - | - |
| 1777323797 | 26.11° C | 18% | 1009.3 hPa | 0 mm | - | - | - |
| 1777323609 | 26.11° C | 18% | 1009.3 hPa | 0 mm | - | - | - |
| 1777320157 | 25.56° C | 17% | 1010.1 hPa | 0 mm | - | - | - |
| 1777320009 | 25.56° C | 17% | 1010.1 hPa | 0 mm | - | - | - |
| 1777316555 | 24.44° C | 19% | 1011 hPa | 0 mm | - | - | - |
| 1777316410 | 24.44° C | 19% | 1011 hPa | 0 mm | - | - | - |
| 1777312942 | 23.89° C | 21% | 1011.8 hPa | 0 mm | - | - | - |
| 1777312810 | 23.89° C | 21% | 1011.8 hPa | 0 mm | - | - | - |
| 1777309370 | 22.78° C | 26% | 1012.3 hPa | 0 mm | - | - | - |
| 1777309210 | 22.78° C | 26% | 1012.3 hPa | 0 mm | - | - | - |
| 1777305739 | 21.11° C | 29% | 1013 hPa | 0 mm | - | - | - |
| 1777305609 | 21.11° C | 29% | 1013 hPa | 0 mm | - | - | - |
| 1777302158 | 19.44° C | 31% | 1013.3 hPa | 0 mm | - | - | - |
| 1777302010 | 19.44° C | 31% | 1013.3 hPa | 0 mm | - | - | - |
* Rain latest hour (hover to see other rain measurements)
** Current wind speed in m/s (hover to see current wind gust speed)